sensor_id;sensor_type;location;lat;lon;timestamp;temperature;humidity
22364;DHT22;11349;53.412;-1.328;2023-07-28T00:02:11;16.30;1.00
22364;DHT22;11349;53.412;-1.328;2023-07-28T00:04:37;16.20;1.00
22364;DHT22;11349;53.412;-1.328;2023-07-28T00:07:04;16.20;1.00
22364;DHT22;11349;53.412;-1.328;2023-07-28T00:09:30;16.20;1.00
22364;DHT22;11349;53.412;-1.328;2023-07-28T00:11:57;16.10;1.00
22364;DHT22;11349;53.412;-1.328;2023-07-28T00:14:26;16.10;1.00
22364;DHT22;11349;53.412;-1.328;2023-07-28T00:16:56;16.10;1.00
22364;DHT22;11349;53.412;-1.328;2023-07-28T00:19:22;16.00;1.00
22364;DHT22;11349;53.412;-1.328;2023-07-28T00:21:51;16.00;12.90
22364;DHT22;11349;53.412;-1.328;2023-07-28T00:24:18;15.90;37.20
22364;DHT22;11349;53.412;-1.328;2023-07-28T00:26:44;15.90;27.40
22364;DHT22;11349;53.412;-1.328;2023-07-28T00:29:10;15.90;24.30
22364;DHT22;11349;53.412;-1.328;2023-07-28T00:31:35;15.80;44.70
22364;DHT22;11349;53.412;-1.328;2023-07-28T00:34:02;15.80;90.70
22364;DHT22;11349;53.412;-1.328;2023-07-28T00:36:28;15.80;91.90
22364;DHT22;11349;53.412;-1.328;2023-07-28T00:38:54;15.80;78.00
22364;DHT22;11349;53.412;-1.328;2023-07-28T00:41:20;15.70;99.90
22364;DHT22;11349;53.412;-1.328;2023-07-28T00:43:45;15.70;99.90
22364;DHT22;11349;53.412;-1.328;2023-07-28T00:46:12;15.60;99.90
22364;DHT22;11349;53.412;-1.328;2023-07-28T00:48:39;15.60;99.90
22364;DHT22;11349;53.412;-1.328;2023-07-28T00:51:06;15.50;99.90
22364;DHT22;11349;53.412;-1.328;2023-07-28T00:53:32;15.60;99.90
22364;DHT22;11349;53.412;-1.328;2023-07-28T00:55:58;15.40;99.90
22364;DHT22;11349;53.412;-1.328;2023-07-28T00:58:24;15.40;99.90
22364;DHT22;11349;53.412;-1.328;2023-07-28T01:00:50;15.40;99.90
22364;DHT22;11349;53.412;-1.328;2023-07-28T01:03:18;15.40;99.90
22364;DHT22;11349;53.412;-1.328;2023-07-28T01:06:07;15.30;99.90
22364;DHT22;11349;53.412;-1.328;2023-07-28T01:11:18;15.30;99.90
22364;DHT22;11349;53.412;-1.328;2023-07-28T01:13:45;15.20;99.90
22364;DHT22;11349;53.412;-1.328;2023-07-28T01:16:11;15.30;99.90
22364;DHT22;11349;53.412;-1.328;2023-07-28T01:18:37;15.30;99.90
22364;DHT22;11349;53.412;-1.328;2023-07-28T01:21:07;15.30;99.90
22364;DHT22;11349;53.412;-1.328;2023-07-28T01:26:30;15.30;99.90
22364;DHT22;11349;53.412;-1.328;2023-07-28T01:28:56;15.30;99.90
22364;DHT22;11349;53.412;-1.328;2023-07-28T01:31:22;15.30;99.90
22364;DHT22;11349;53.412;-1.328;2023-07-28T01:33:47;15.40;99.90
22364;DHT22;11349;53.412;-1.328;2023-07-28T01:36:13;15.30;99.90
22364;DHT22;11349;53.412;-1.328;2023-07-28T01:38:39;15.30;99.90
22364;DHT22;11349;53.412;-1.328;2023-07-28T01:41:04;15.30;99.90
22364;DHT22;11349;53.412;-1.328;2023-07-28T01:43:30;15.30;99.90
22364;DHT22;11349;53.412;-1.328;2023-07-28T01:45:56;15.30;99.90
22364;DHT22;11349;53.412;-1.328;2023-07-28T01:48:22;15.30;99.90
22364;DHT22;11349;53.412;-1.328;2023-07-28T01:50:48;15.40;99.90
22364;DHT22;11349;53.412;-1.328;2023-07-28T01:53:13;15.40;99.90
22364;DHT22;11349;53.412;-1.328;2023-07-28T01:55:39;15.40;99.90
22364;DHT22;11349;53.412;-1.328;2023-07-28T01:58:05;15.40;99.90
22364;DHT22;11349;53.412;-1.328;2023-07-28T02:00:31;15.50;99.90
22364;DHT22;11349;53.412;-1.328;2023-07-28T02:02:56;15.50;99.90
22364;DHT22;11349;53.412;-1.328;2023-07-28T02:05:23;15.50;99.90
22364;DHT22;11349;53.412;-1.328;2023-07-28T02:07:49;15.50;99.90
22364;DHT22;11349;53.412;-1.328;2023-07-28T02:10:15;15.50;99.90
22364;DHT22;11349;53.412;-1.328;2023-07-28T02:12:40;15.50;99.90
22364;DHT22;11349;53.412;-1.328;2023-07-28T02:15:07;15.50;99.90
22364;DHT22;11349;53.412;-1.328;2023-07-28T02:17:33;15.50;99.90
22364;DHT22;11349;53.412;-1.328;2023-07-28T02:19:59;15.50;99.90
22364;DHT22;11349;53.412;-1.328;2023-07-28T02:22:25;15.50;99.90
22364;DHT22;11349;53.412;-1.328;2023-07-28T02:24:50;15.40;99.90
22364;DHT22;11349;53.412;-1.328;2023-07-28T02:27:16;15.40;99.90
22364;DHT22;11349;53.412;-1.328;2023-07-28T02:29:42;15.40;99.90
22364;DHT22;11349;53.412;-1.328;2023-07-28T02:32:08;15.40;99.90
22364;DHT22;11349;53.412;-1.328;2023-07-28T02:34:34;15.40;99.90
22364;DHT22;11349;53.412;-1.328;2023-07-28T02:36:59;15.40;99.90
22364;DHT22;11349;53.412;-1.328;2023-07-28T02:39:25;15.30;99.90
22364;DHT22;11349;53.412;-1.328;2023-07-28T02:41:51;15.30;99.90
22364;DHT22;11349;53.412;-1.328;2023-07-28T02:44:17;15.30;99.90
22364;DHT22;11349;53.412;-1.328;2023-07-28T02:46:42;15.30;99.90
22364;DHT22;11349;53.412;-1.328;2023-07-28T02:49:08;15.30;99.90
22364;DHT22;11349;53.412;-1.328;2023-07-28T02:51:34;15.30;99.90
22364;DHT22;11349;53.412;-1.328;2023-07-28T02:54:00;15.30;99.90
22364;DHT22;11349;53.412;-1.328;2023-07-28T02:56:26;15.30;99.90
22364;DHT22;11349;53.412;-1.328;2023-07-28T02:58:51;15.30;99.90
22364;DHT22;11349;53.412;-1.328;2023-07-28T03:01:17;15.30;99.90
22364;DHT22;11349;53.412;-1.328;2023-07-28T03:03:43;15.30;99.90
22364;DHT22;11349;53.412;-1.328;2023-07-28T03:06:09;15.20;99.90
22364;DHT22;11349;53.412;-1.328;2023-07-28T03:08:35;15.20;99.90
22364;DHT22;11349;53.412;-1.328;2023-07-28T03:11:00;15.20;99.90
22364;DHT22;11349;53.412;-1.328;2023-07-28T03:13:29;15.20;99.90
22364;DHT22;11349;53.412;-1.328;2023-07-28T03:15:55;15.20;99.90
22364;DHT22;11349;53.412;-1.328;2023-07-28T03:18:20;15.20;99.90
22364;DHT22;11349;53.412;-1.328;2023-07-28T03:20:47;15.20;99.90
22364;DHT22;11349;53.412;-1.328;2023-07-28T03:23:13;15.20;99.90
22364;DHT22;11349;53.412;-1.328;2023-07-28T03:25:38;15.20;99.90
22364;DHT22;11349;53.412;-1.328;2023-07-28T03:28:04;15.10;99.90
22364;DHT22;11349;53.412;-1.328;2023-07-28T03:30:30;15.10;99.90
22364;DHT22;11349;53.412;-1.328;2023-07-28T03:32:56;15.10;99.90
22364;DHT22;11349;53.412;-1.328;2023-07-28T03:35:21;15.20;99.90
22364;DHT22;11349;53.412;-1.328;2023-07-28T03:37:47;15.20;99.90
22364;DHT22;11349;53.412;-1.328;2023-07-28T03:40:13;15.20;99.90
22364;DHT22;11349;53.412;-1.328;2023-07-28T03:42:39;15.10;99.90
22364;DHT22;11349;53.412;-1.328;2023-07-28T03:45:05;15.00;99.90
22364;DHT22;11349;53.412;-1.328;2023-07-28T03:47:31;15.00;99.90
22364;DHT22;11349;53.412;-1.328;2023-07-28T03:49:56;15.00;99.90
22364;DHT22;11349;53.412;-1.328;2023-07-28T03:52:22;14.90;99.90
22364;DHT22;11349;53.412;-1.328;2023-07-28T03:54:48;14.90;99.90
22364;DHT22;11349;53.412;-1.328;2023-07-28T03:57:13;14.90;99.90
22364;DHT22;11349;53.412;-1.328;2023-07-28T03:59:39;14.90;99.90
22364;DHT22;11349;53.412;-1.328;2023-07-28T04:02:05;14.80;99.90
22364;DHT22;11349;53.412;-1.328;2023-07-28T04:04:30;14.90;99.90
22364;DHT22;11349;53.412;-1.328;2023-07-28T04:07:01;14.90;99.90
22364;DHT22;11349;53.412;-1.328;2023-07-28T04:09:27;14.90;99.90
22364;DHT22;11349;53.412;-1.328;2023-07-28T04:11:52;14.90;99.90
22364;DHT22;11349;53.412;-1.328;2023-07-28T04:14:18;14.90;99.90
22364;DHT22;11349;53.412;-1.328;2023-07-28T04:16:44;14.90;99.90
22364;DHT22;11349;53.412;-1.328;2023-07-28T04:19:09;14.90;99.90
22364;DHT22;11349;53.412;-1.328;2023-07-28T04:21:35;14.90;99.90
22364;DHT22;11349;53.412;-1.328;2023-07-28T04:24:06;14.90;99.90
22364;DHT22;11349;53.412;-1.328;2023-07-28T04:26:32;15.00;99.90
22364;DHT22;11349;53.412;-1.328;2023-07-28T04:28:58;15.00;99.90
22364;DHT22;11349;53.412;-1.328;2023-07-28T04:31:23;15.00;99.90
22364;DHT22;11349;53.412;-1.328;2023-07-28T04:33:49;15.10;99.90
22364;DHT22;11349;53.412;-1.328;2023-07-28T04:36:15;15.10;99.90
22364;DHT22;11349;53.412;-1.328;2023-07-28T04:38:40;15.20;99.90
22364;DHT22;11349;53.412;-1.328;2023-07-28T04:41:06;15.20;99.90
22364;DHT22;11349;53.412;-1.328;2023-07-28T04:43:32;15.20;99.90
22364;DHT22;11349;53.412;-1.328;2023-07-28T04:45:57;15.20;99.90
22364;DHT22;11349;53.412;-1.328;2023-07-28T04:48:23;15.30;99.90
22364;DHT22;11349;53.412;-1.328;2023-07-28T04:50:49;15.30;99.90
22364;DHT22;11349;53.412;-1.328;2023-07-28T04:53:15;15.30;99.90
22364;DHT22;11349;53.412;-1.328;2023-07-28T04:55:40;15.40;99.90
22364;DHT22;11349;53.412;-1.328;2023-07-28T04:58:06;15.30;99.90
22364;DHT22;11349;53.412;-1.328;2023-07-28T05:00:32;15.30;99.90
22364;DHT22;11349;53.412;-1.328;2023-07-28T05:02:58;15.40;99.90
22364;DHT22;11349;53.412;-1.328;2023-07-28T05:05:23;15.40;99.90
22364;DHT22;11349;53.412;-1.328;2023-07-28T05:07:49;15.40;99.90
22364;DHT22;11349;53.412;-1.328;2023-07-28T05:10:15;15.40;99.90
22364;DHT22;11349;53.412;-1.328;2023-07-28T05:12:40;15.50;99.90
22364;DHT22;11349;53.412;-1.328;2023-07-28T05:15:06;15.60;99.90
22364;DHT22;11349;53.412;-1.328;2023-07-28T05:17:36;15.70;99.90
22364;DHT22;11349;53.412;-1.328;2023-07-28T05:20:03;15.70;99.90
22364;DHT22;11349;53.412;-1.328;2023-07-28T05:22:29;15.80;99.90
22364;DHT22;11349;53.412;-1.328;2023-07-28T05:24:54;15.80;99.90
22364;DHT22;11349;53.412;-1.328;2023-07-28T05:27:20;15.80;99.90
22364;DHT22;11349;53.412;-1.328;2023-07-28T05:29:46;15.90;99.90
22364;DHT22;11349;53.412;-1.328;2023-07-28T05:32:11;15.90;99.90
22364;DHT22;11349;53.412;-1.328;2023-07-28T05:34:37;16.00;99.90
22364;DHT22;11349;53.412;-1.328;2023-07-28T05:37:05;16.00;99.90
22364;DHT22;11349;53.412;-1.328;2023-07-28T05:39:30;16.00;99.90
22364;DHT22;11349;53.412;-1.328;2023-07-28T05:41:56;16.00;99.90
22364;DHT22;11349;53.412;-1.328;2023-07-28T05:44:22;16.00;99.90
22364;DHT22;11349;53.412;-1.328;2023-07-28T05:46:48;16.20;99.90
22364;DHT22;11349;53.412;-1.328;2023-07-28T05:49:14;16.40;99.90
22364;DHT22;11349;53.412;-1.328;2023-07-28T05:51:39;16.70;99.90
22364;DHT22;11349;53.412;-1.328;2023-07-28T05:54:05;16.90;45.30
22364;DHT22;11349;53.412;-1.328;2023-07-28T05:56:31;17.10;1.00
22364;DHT22;11349;53.412;-1.328;2023-07-28T05:58:56;17.10;1.00
22364;DHT22;11349;53.412;-1.328;2023-07-28T06:01:22;17.30;1.00
22364;DHT22;11349;53.412;-1.328;2023-07-28T06:03:51;17.40;1.00
22364;DHT22;11349;53.412;-1.328;2023-07-28T06:06:17;17.50;1.00
22364;DHT22;11349;53.412;-1.328;2023-07-28T06:08:44;17.40;1.00
22364;DHT22;11349;53.412;-1.328;2023-07-28T06:11:09;17.50;1.00
22364;DHT22;11349;53.412;-1.328;2023-07-28T06:13:35;17.50;99.90
22364;DHT22;11349;53.412;-1.328;2023-07-28T06:16:01;17.60;99.90
22364;DHT22;11349;53.412;-1.328;2023-07-28T06:18:27;17.60;99.90
22364;DHT22;11349;53.412;-1.328;2023-07-28T06:20:52;17.60;99.90
22364;DHT22;11349;53.412;-1.328;2023-07-28T06:23:18;17.60;99.90
22364;DHT22;11349;53.412;-1.328;2023-07-28T06:25:44;17.60;99.90
22364;DHT22;11349;53.412;-1.328;2023-07-28T06:28:12;17.60;99.90
22364;DHT22;11349;53.412;-1.328;2023-07-28T06:30:38;17.60;99.90
22364;DHT22;11349;53.412;-1.328;2023-07-28T06:33:08;17.60;1.00
22364;DHT22;11349;53.412;-1.328;2023-07-28T06:35:34;17.60;99.90
22364;DHT22;11349;53.412;-1.328;2023-07-28T06:38:00;17.50;1.00
22364;DHT22;11349;53.412;-1.328;2023-07-28T06:40:26;17.50;8.80
22364;DHT22;11349;53.412;-1.328;2023-07-28T06:42:52;17.50;1.00
22364;DHT22;11349;53.412;-1.328;2023-07-28T06:45:18;17.60;99.90
22364;DHT22;11349;53.412;-1.328;2023-07-28T06:47:44;17.60;1.00
22364;DHT22;11349;53.412;-1.328;2023-07-28T06:50:10;17.70;1.00
22364;DHT22;11349;53.412;-1.328;2023-07-28T06:52:37;17.70;1.00
22364;DHT22;11349;53.412;-1.328;2023-07-28T06:55:03;17.70;1.00
22364;DHT22;11349;53.412;-1.328;2023-07-28T06:57:29;17.80;99.90
22364;DHT22;11349;53.412;-1.328;2023-07-28T06:59:56;17.80;99.90
22364;DHT22;11349;53.412;-1.328;2023-07-28T07:02:21;17.90;99.90
22364;DHT22;11349;53.412;-1.328;2023-07-28T07:04:47;18.00;99.90
22364;DHT22;11349;53.412;-1.328;2023-07-28T07:07:13;18.10;99.90
22364;DHT22;11349;53.412;-1.328;2023-07-28T07:09:38;18.10;99.90
22364;DHT22;11349;53.412;-1.328;2023-07-28T07:12:04;18.20;99.90
22364;DHT22;11349;53.412;-1.328;2023-07-28T07:14:31;18.30;99.90
22364;DHT22;11349;53.412;-1.328;2023-07-28T07:16:57;18.40;99.90
22364;DHT22;11349;53.412;-1.328;2023-07-28T07:19:23;18.50;99.90
22364;DHT22;11349;53.412;-1.328;2023-07-28T07:21:48;18.70;99.90
22364;DHT22;11349;53.412;-1.328;2023-07-28T07:24:16;18.80;30.90
22364;DHT22;11349;53.412;-1.328;2023-07-28T07:26:42;18.90;26.30
22364;DHT22;11349;53.412;-1.328;2023-07-28T07:29:08;19.00;26.30
22364;DHT22;11349;53.412;-1.328;2023-07-28T07:31:35;19.10;58.00
22364;DHT22;11349;53.412;-1.328;2023-07-28T07:34:01;19.20;1.40
22364;DHT22;11349;53.412;-1.328;2023-07-28T07:36:26;19.30;8.60
22364;DHT22;11349;53.412;-1.328;2023-07-28T07:38:55;19.40;1.00
22364;DHT22;11349;53.412;-1.328;2023-07-28T07:41:21;19.50;1.00
22364;DHT22;11349;53.412;-1.328;2023-07-28T07:43:48;19.50;1.00
22364;DHT22;11349;53.412;-1.328;2023-07-28T07:46:15;19.60;1.00
22364;DHT22;11349;53.412;-1.328;2023-07-28T07:48:41;19.70;1.00
22364;DHT22;11349;53.412;-1.328;2023-07-28T07:51:07;19.70;1.00
22364;DHT22;11349;53.412;-1.328;2023-07-28T07:53:37;20.10;1.00
22364;DHT22;11349;53.412;-1.328;2023-07-28T07:56:03;20.20;99.90
22364;DHT22;11349;53.412;-1.328;2023-07-28T07:58:30;20.20;99.90
22364;DHT22;11349;53.412;-1.328;2023-07-28T08:00:56;20.30;99.90
22364;DHT22;11349;53.412;-1.328;2023-07-28T08:03:21;20.30;99.90
22364;DHT22;11349;53.412;-1.328;2023-07-28T08:05:47;20.50;99.90
22364;DHT22;11349;53.412;-1.328;2023-07-28T08:08:13;20.60;99.90
22364;DHT22;11349;53.412;-1.328;2023-07-28T08:10:42;20.90;99.90
22364;DHT22;11349;53.412;-1.328;2023-07-28T08:13:08;20.90;99.90
22364;DHT22;11349;53.412;-1.328;2023-07-28T08:15:36;21.20;99.90
22364;DHT22;11349;53.412;-1.328;2023-07-28T08:18:02;21.10;1.00
22364;DHT22;11349;53.412;-1.328;2023-07-28T08:20:28;20.90;11.30
22364;DHT22;11349;53.412;-1.328;2023-07-28T08:22:53;21.40;1.00
22364;DHT22;11349;53.412;-1.328;2023-07-28T08:25:19;21.70;99.90
22364;DHT22;11349;53.412;-1.328;2023-07-28T08:27:45;21.80;99.90
22364;DHT22;11349;53.412;-1.328;2023-07-28T08:30:11;22.00;99.90
22364;DHT22;11349;53.412;-1.328;2023-07-28T08:32:39;21.80;99.90
22364;DHT22;11349;53.412;-1.328;2023-07-28T08:35:05;21.60;99.90
22364;DHT22;11349;53.412;-1.328;2023-07-28T08:37:31;21.60;99.90
22364;DHT22;11349;53.412;-1.328;2023-07-28T08:39:56;22.10;99.90
22364;DHT22;11349;53.412;-1.328;2023-07-28T08:42:22;22.20;32.80
22364;DHT22;11349;53.412;-1.328;2023-07-28T08:44:48;22.10;99.90
22364;DHT22;11349;53.412;-1.328;2023-07-28T08:47:17;22.10;99.90
22364;DHT22;11349;53.412;-1.328;2023-07-28T08:49:44;22.00;99.90
22364;DHT22;11349;53.412;-1.328;2023-07-28T08:52:10;21.90;99.90
22364;DHT22;11349;53.412;-1.328;2023-07-28T08:54:36;21.80;99.90
22364;DHT22;11349;53.412;-1.328;2023-07-28T08:57:01;21.70;99.90
22364;DHT22;11349;53.412;-1.328;2023-07-28T08:59:29;21.80;99.90
22364;DHT22;11349;53.412;-1.328;2023-07-28T09:01:56;21.80;99.90
22364;DHT22;11349;53.412;-1.328;2023-07-28T09:04:27;21.70;99.90
22364;DHT22;11349;53.412;-1.328;2023-07-28T09:06:52;21.70;99.90
22364;DHT22;11349;53.412;-1.328;2023-07-28T09:09:22;21.80;99.90
22364;DHT22;11349;53.412;-1.328;2023-07-28T09:11:53;21.60;99.90
22364;DHT22;11349;53.412;-1.328;2023-07-28T09:14:21;21.90;84.00
22364;DHT22;11349;53.412;-1.328;2023-07-28T09:16:49;22.00;82.60
22364;DHT22;11349;53.412;-1.328;2023-07-28T09:19:15;22.10;1.00
22364;DHT22;11349;53.412;-1.328;2023-07-28T09:21:44;22.20;1.00
22364;DHT22;11349;53.412;-1.328;2023-07-28T09:24:13;22.30;1.00
22364;DHT22;11349;53.412;-1.328;2023-07-28T09:26:44;22.30;1.00
22364;DHT22;11349;53.412;-1.328;2023-07-28T09:29:16;22.10;1.00
22364;DHT22;11349;53.412;-1.328;2023-07-28T09:31:43;22.20;99.90
22364;DHT22;11349;53.412;-1.328;2023-07-28T09:34:10;22.30;1.00
22364;DHT22;11349;53.412;-1.328;2023-07-28T09:36:37;22.10;99.90
22364;DHT22;11349;53.412;-1.328;2023-07-28T09:39:06;22.10;1.00
22364;DHT22;11349;53.412;-1.328;2023-07-28T09:41:35;22.00;1.00
22364;DHT22;11349;53.412;-1.328;2023-07-28T09:44:03;21.90;1.00
22364;DHT22;11349;53.412;-1.328;2023-07-28T09:46:29;21.90;1.00
22364;DHT22;11349;53.412;-1.328;2023-07-28T09:48:59;21.90;1.00
22364;DHT22;11349;53.412;-1.328;2023-07-28T09:51:30;22.00;1.00
22364;DHT22;11349;53.412;-1.328;2023-07-28T09:54:20;21.80;1.00
22364;DHT22;11349;53.412;-1.328;2023-07-28T09:56:50;21.80;99.90
22364;DHT22;11349;53.412;-1.328;2023-07-28T09:59:19;21.90;1.00
22364;DHT22;11349;53.412;-1.328;2023-07-28T10:01:46;21.90;99.90
22364;DHT22;11349;53.412;-1.328;2023-07-28T10:04:13;21.80;99.90
22364;DHT22;11349;53.412;-1.328;2023-07-28T10:06:40;22.00;99.90
22364;DHT22;11349;53.412;-1.328;2023-07-28T10:09:06;22.00;99.90
22364;DHT22;11349;53.412;-1.328;2023-07-28T10:11:32;22.00;99.90
22364;DHT22;11349;53.412;-1.328;2023-07-28T10:13:58;22.00;1.00
22364;DHT22;11349;53.412;-1.328;2023-07-28T10:16:37;22.00;1.00
22364;DHT22;11349;53.412;-1.328;2023-07-28T10:19:04;22.10;1.00
22364;DHT22;11349;53.412;-1.328;2023-07-28T10:21:29;22.00;1.00
22364;DHT22;11349;53.412;-1.328;2023-07-28T10:23:58;21.90;1.00
22364;DHT22;11349;53.412;-1.328;2023-07-28T10:26:40;21.90;1.00
22364;DHT22;11349;53.412;-1.328;2023-07-28T10:29:14;22.00;1.00
22364;DHT22;11349;53.412;-1.328;2023-07-28T10:31:53;22.00;1.00
22364;DHT22;11349;53.412;-1.328;2023-07-28T10:34:21;22.00;1.00
22364;DHT22;11349;53.412;-1.328;2023-07-28T10:36:55;22.00;1.00
22364;DHT22;11349;53.412;-1.328;2023-07-28T10:39:21;22.10;1.00
22364;DHT22;11349;53.412;-1.328;2023-07-28T10:42:01;22.20;99.90
22364;DHT22;11349;53.412;-1.328;2023-07-28T10:44:28;22.30;83.50
22364;DHT22;11349;53.412;-1.328;2023-07-28T10:46:54;22.20;71.40
22364;DHT22;11349;53.412;-1.328;2023-07-28T10:49:20;22.30;99.90
22364;DHT22;11349;53.412;-1.328;2023-07-28T10:51:46;22.10;99.90
22364;DHT22;11349;53.412;-1.328;2023-07-28T10:54:12;21.90;99.90
22364;DHT22;11349;53.412;-1.328;2023-07-28T10:56:42;22.10;99.90
22364;DHT22;11349;53.412;-1.328;2023-07-28T10:59:08;22.30;99.90
22364;DHT22;11349;53.412;-1.328;2023-07-28T11:01:38;22.20;46.50
22364;DHT22;11349;53.412;-1.328;2023-07-28T11:04:16;22.30;99.90
22364;DHT22;11349;53.412;-1.328;2023-07-28T11:06:44;22.20;99.90
22364;DHT22;11349;53.412;-1.328;2023-07-28T11:09:11;22.10;99.90
22364;DHT22;11349;53.412;-1.328;2023-07-28T11:11:38;21.70;99.90
22364;DHT22;11349;53.412;-1.328;2023-07-28T11:14:05;21.90;99.90
22364;DHT22;11349;53.412;-1.328;2023-07-28T11:16:37;22.10;99.90
22364;DHT22;11349;53.412;-1.328;2023-07-28T11:19:07;22.10;99.90
22364;DHT22;11349;53.412;-1.328;2023-07-28T11:21:39;22.10;99.90
22364;DHT22;11349;53.412;-1.328;2023-07-28T11:24:06;21.90;99.90
22364;DHT22;11349;53.412;-1.328;2023-07-28T11:26:35;22.00;99.90
22364;DHT22;11349;53.412;-1.328;2023-07-28T11:29:01;21.80;1.00
22364;DHT22;11349;53.412;-1.328;2023-07-28T11:31:27;21.80;1.00
22364;DHT22;11349;53.412;-1.328;2023-07-28T11:33:53;22.00;99.90
22364;DHT22;11349;53.412;-1.328;2023-07-28T11:36:26;22.10;1.00
22364;DHT22;11349;53.412;-1.328;2023-07-28T11:38:54;22.00;50.00
22364;DHT22;11349;53.412;-1.328;2023-07-28T11:41:20;22.10;99.90
22364;DHT22;11349;53.412;-1.328;2023-07-28T11:43:50;22.10;27.40
22364;DHT22;11349;53.412;-1.328;2023-07-28T11:46:32;22.10;1.00
22364;DHT22;11349;53.412;-1.328;2023-07-28T11:51:40;22.10;1.00
22364;DHT22;11349;53.412;-1.328;2023-07-28T11:54:14;22.10;99.90
22364;DHT22;11349;53.412;-1.328;2023-07-28T11:56:42;22.20;1.00
22364;DHT22;11349;53.412;-1.328;2023-07-28T11:59:08;22.30;1.00
22364;DHT22;11349;53.412;-1.328;2023-07-28T12:01:34;22.20;1.00
22364;DHT22;11349;53.412;-1.328;2023-07-28T12:04:28;22.20;99.90
22364;DHT22;11349;53.412;-1.328;2023-07-28T12:07:15;22.10;99.90
22364;DHT22;11349;53.412;-1.328;2023-07-28T12:12:27;22.30;1.00
22364;DHT22;11349;53.412;-1.328;2023-07-28T12:14:57;22.20;1.00
22364;DHT22;11349;53.412;-1.328;2023-07-28T12:17:30;22.20;1.00
22364;DHT22;11349;53.412;-1.328;2023-07-28T12:22:29;22.30;86.00
22364;DHT22;11349;53.412;-1.328;2023-07-28T12:24:55;22.30;99.90
22364;DHT22;11349;53.412;-1.328;2023-07-28T12:27:21;22.40;1.00
22364;DHT22;11349;53.412;-1.328;2023-07-28T12:29:50;22.30;99.90
22364;DHT22;11349;53.412;-1.328;2023-07-28T12:32:16;22.30;99.90
22364;DHT22;11349;53.412;-1.328;2023-07-28T12:34:42;22.30;99.90
22364;DHT22;11349;53.412;-1.328;2023-07-28T12:37:07;22.10;99.90
22364;DHT22;11349;53.412;-1.328;2023-07-28T12:39:37;22.30;99.90
22364;DHT22;11349;53.412;-1.328;2023-07-28T12:42:06;22.40;80.50
22364;DHT22;11349;53.412;-1.328;2023-07-28T12:44:32;22.40;99.90
22364;DHT22;11349;53.412;-1.328;2023-07-28T12:47:00;22.40;99.90
22364;DHT22;11349;53.412;-1.328;2023-07-28T12:49:26;22.40;1.00
22364;DHT22;11349;53.412;-1.328;2023-07-28T12:51:58;22.50;1.00
22364;DHT22;11349;53.412;-1.328;2023-07-28T12:54:24;22.60;63.70
22364;DHT22;11349;53.412;-1.328;2023-07-28T12:56:50;22.50;27.00
22364;DHT22;11349;53.412;-1.328;2023-07-28T12:59:16;22.60;20.30
22364;DHT22;11349;53.412;-1.328;2023-07-28T13:01:42;22.60;33.70
22364;DHT22;11349;53.412;-1.328;2023-07-28T13:04:08;22.50;99.90
22364;DHT22;11349;53.412;-1.328;2023-07-28T13:06:34;22.60;99.90
22364;DHT22;11349;53.412;-1.328;2023-07-28T13:08:59;22.60;99.90
22364;DHT22;11349;53.412;-1.328;2023-07-28T13:11:25;22.70;99.90
22364;DHT22;11349;53.412;-1.328;2023-07-28T13:13:51;22.50;99.90
22364;DHT22;11349;53.412;-1.328;2023-07-28T13:16:16;22.50;1.00
22364;DHT22;11349;53.412;-1.328;2023-07-28T13:18:43;22.50;99.90
22364;DHT22;11349;53.412;-1.328;2023-07-28T13:21:09;22.50;1.00
22364;DHT22;11349;53.412;-1.328;2023-07-28T13:23:37;22.60;99.90
22364;DHT22;11349;53.412;-1.328;2023-07-28T13:26:03;22.60;99.90
22364;DHT22;11349;53.412;-1.328;2023-07-28T13:28:32;22.60;99.90
22364;DHT22;11349;53.412;-1.328;2023-07-28T13:30:58;22.60;99.90
22364;DHT22;11349;53.412;-1.328;2023-07-28T13:33:24;22.50;99.90
22364;DHT22;11349;53.412;-1.328;2023-07-28T13:35:50;22.70;1.00
22364;DHT22;11349;53.412;-1.328;2023-07-28T13:38:15;22.70;99.90
22364;DHT22;11349;53.412;-1.328;2023-07-28T13:40:41;22.70;99.90
22364;DHT22;11349;53.412;-1.328;2023-07-28T13:43:07;22.80;1.00
22364;DHT22;11349;53.412;-1.328;2023-07-28T13:45:36;22.80;1.00
22364;DHT22;11349;53.412;-1.328;2023-07-28T13:48:02;22.90;1.00
22364;DHT22;11349;53.412;-1.328;2023-07-28T13:50:28;23.10;1.00
22364;DHT22;11349;53.412;-1.328;2023-07-28T13:52:54;23.00;99.90
22364;DHT22;11349;53.412;-1.328;2023-07-28T13:55:19;23.00;99.90
22364;DHT22;11349;53.412;-1.328;2023-07-28T13:57:46;23.00;1.00
22364;DHT22;11349;53.412;-1.328;2023-07-28T14:00:12;23.00;99.90
22364;DHT22;11349;53.412;-1.328;2023-07-28T14:02:39;23.10;99.90
22364;DHT22;11349;53.412;-1.328;2023-07-28T14:05:06;22.90;1.00
22364;DHT22;11349;53.412;-1.328;2023-07-28T14:07:32;22.90;1.00
22364;DHT22;11349;53.412;-1.328;2023-07-28T14:09:59;22.90;4.70
22364;DHT22;11349;53.412;-1.328;2023-07-28T14:12:25;23.00;99.90
22364;DHT22;11349;53.412;-1.328;2023-07-28T14:14:51;23.00;1.00
22364;DHT22;11349;53.412;-1.328;2023-07-28T14:17:16;23.00;99.90
22364;DHT22;11349;53.412;-1.328;2023-07-28T14:19:42;23.10;99.90
22364;DHT22;11349;53.412;-1.328;2023-07-28T14:22:08;23.00;99.90
22364;DHT22;11349;53.412;-1.328;2023-07-28T14:24:34;23.10;99.90
22364;DHT22;11349;53.412;-1.328;2023-07-28T14:27:00;23.10;75.20
22364;DHT22;11349;53.412;-1.328;2023-07-28T14:29:26;23.00;60.40
22364;DHT22;11349;53.412;-1.328;2023-07-28T14:31:52;23.00;99.90
22364;DHT22;11349;53.412;-1.328;2023-07-28T14:34:19;23.10;99.90
22364;DHT22;11349;53.412;-1.328;2023-07-28T14:36:44;23.10;99.90
22364;DHT22;11349;53.412;-1.328;2023-07-28T14:39:10;23.10;99.90
22364;DHT22;11349;53.412;-1.328;2023-07-28T14:41:36;23.10;99.90
22364;DHT22;11349;53.412;-1.328;2023-07-28T14:44:02;22.90;1.00
22364;DHT22;11349;53.412;-1.328;2023-07-28T14:46:28;23.00;99.90
22364;DHT22;11349;53.412;-1.328;2023-07-28T14:48:54;23.10;1.00
22364;DHT22;11349;53.412;-1.328;2023-07-28T14:51:20;23.10;1.00
22364;DHT22;11349;53.412;-1.328;2023-07-28T14:53:46;23.10;99.90
22364;DHT22;11349;53.412;-1.328;2023-07-28T14:56:14;23.20;99.90
22364;DHT22;11349;53.412;-1.328;2023-07-28T14:58:40;23.30;99.90
22364;DHT22;11349;53.412;-1.328;2023-07-28T15:01:07;23.20;99.90
22364;DHT22;11349;53.412;-1.328;2023-07-28T15:03:33;23.20;1.00
22364;DHT22;11349;53.412;-1.328;2023-07-28T15:06:00;23.30;69.60
22364;DHT22;11349;53.412;-1.328;2023-07-28T15:08:26;23.30;1.00
22364;DHT22;11349;53.412;-1.328;2023-07-28T15:10:52;23.40;99.90
22364;DHT22;11349;53.412;-1.328;2023-07-28T15:13:18;23.30;1.00
22364;DHT22;11349;53.412;-1.328;2023-07-28T15:15:44;23.50;1.00
22364;DHT22;11349;53.412;-1.328;2023-07-28T15:18:10;23.30;99.90
22364;DHT22;11349;53.412;-1.328;2023-07-28T15:20:36;23.50;99.90
22364;DHT22;11349;53.412;-1.328;2023-07-28T15:23:02;23.40;99.90
22364;DHT22;11349;53.412;-1.328;2023-07-28T15:25:28;23.50;99.90
22364;DHT22;11349;53.412;-1.328;2023-07-28T15:27:54;23.50;1.00
22364;DHT22;11349;53.412;-1.328;2023-07-28T15:30:20;23.50;99.90
22364;DHT22;11349;53.412;-1.328;2023-07-28T15:32:46;23.50;52.50